Time;durP1;ratioP1;P1;durP2;ratioP2;P2;SDS_P1;SDS_P2;PMS_P1;PMS_P2;Temp;Humidity;BMP_temperature;BMP_pressure;BME280_temperature;BME280_humidity;BME280_pressure;Samples;Min_cycle;Max_cycle;Signal;HPM_P1;HPM_P2
2023/02/20 00:00:37;;;;;;;0.80;0.80;;;;;;;;;;5045533;28;20632;-49
2023/02/20 00:03:03;;;;;;;0.77;0.77;;;;;;;;;;5065793;28;20183;-49
2023/02/20 00:05:29;;;;;;;0.70;0.70;;;;;;;;;;5057347;28;20198;-49
2023/02/20 00:07:55;;;;;;;0.73;0.73;;;;;;;;;;5058720;28;20187;-49
2023/02/20 00:10:23;;;;;;;0.80;0.80;;;;;;;;;;5057250;28;20222;-49
2023/02/20 00:12:48;;;;;;;1.00;0.90;;;;;;;;;;5066280;28;20182;-49
2023/02/20 00:15:15;;;;;;;1.10;0.85;;;;;;;;;;5063046;28;20179;-49
2023/02/20 00:17:42;;;;;;;0.90;0.90;;;;;;;;;;5061081;28;20177;-49
2023/02/20 00:20:08;;;;;;;1.00;0.90;;;;;;;;;;5057812;28;20496;-49
2023/02/20 00:22:34;;;;;;;0.82;0.82;;;;;;;;;;5058985;28;20186;-49
2023/02/20 00:25:00;;;;;;;0.88;0.85;;;;;;;;;;5063322;28;20198;-49
2023/02/20 00:27:26;;;;;;;0.80;0.80;;;;;;;;;;5064471;28;20195;-49
2023/02/20 00:29:52;;;;;;;0.75;0.75;;;;;;;;;;5066973;28;20256;-49
2023/02/20 00:32:17;;;;;;;0.80;0.80;;;;;;;;;;5065017;28;20263;-49
2023/02/20 00:34:43;;;;;;;0.93;0.80;;;;;;;;;;5068700;28;20206;-48
2023/02/20 00:37:09;;;;;;;0.80;0.80;;;;;;;;;;5065518;28;20213;-49
2023/02/20 00:39:35;;;;;;;0.70;0.70;;;;;;;;;;5056671;28;20232;-49
2023/02/20 00:42:01;;;;;;;0.73;0.73;;;;;;;;;;5065050;28;20178;-49
2023/02/20 00:44:27;;;;;;;0.77;0.70;;;;;;;;;;5064006;28;20232;-48
2023/02/20 00:46:53;;;;;;;0.77;0.77;;;;;;;;;;5069460;28;20540;-48
2023/02/20 00:49:19;;;;;;;0.70;0.70;;;;;;;;;;5063962;28;20186;-48
2023/02/20 00:51:45;;;;;;;0.77;0.77;;;;;;;;;;5053484;28;20601;-48
2023/02/20 00:54:11;;;;;;;0.70;0.70;;;;;;;;;;5052845;28;20176;-48
2023/02/20 00:56:37;;;;;;;0.80;0.80;;;;;;;;;;5062354;28;20262;-48
2023/02/20 00:59:03;;;;;;;0.70;0.70;;;;;;;;;;5054337;28;20609;-48
2023/02/20 01:01:29;;;;;;;0.82;0.80;;;;;;;;;;5071523;28;20205;-48
2023/02/20 01:03:56;;;;;;;0.65;0.65;;;;;;;;;;5050992;28;20192;-48
2023/02/20 01:06:21;;;;;;;0.90;0.80;;;;;;;;;;5055603;28;20191;-48
2023/02/20 01:08:47;;;;;;;0.68;0.68;;;;;;;;;;5041031;28;20202;-48
2023/02/20 01:11:13;;;;;;;0.90;0.90;;;;;;;;;;5040949;28;20203;-48
2023/02/20 01:13:39;;;;;;;0.80;0.80;;;;;;;;;;5048283;28;20187;-48
2023/02/20 01:16:05;;;;;;;0.70;0.70;;;;;;;;;;5067435;28;20228;-48
2023/02/20 01:18:31;;;;;;;0.70;0.70;;;;;;;;;;5052941;28;20178;-48
2023/02/20 01:20:57;;;;;;;0.75;0.75;;;;;;;;;;5061123;28;20193;-48
2023/02/20 01:23:23;;;;;;;0.77;0.70;;;;;;;;;;5048692;28;20214;-48
2023/02/20 01:25:49;;;;;;;0.70;0.70;;;;;;;;;;5058215;28;20454;-48
2023/02/20 01:28:15;;;;;;;0.52;0.52;;;;;;;;;;5049529;28;20191;-48
2023/02/20 01:30:41;;;;;;;0.70;0.70;;;;;;;;;;5062716;28;20204;-48
2023/02/20 01:33:07;;;;;;;0.63;0.63;;;;;;;;;;5056424;28;20490;-49
2023/02/20 01:35:33;;;;;;;1.23;0.60;;;;;;;;;;5046642;28;20190;-49
2023/02/20 01:37:59;;;;;;;0.60;0.60;;;;;;;;;;5057558;28;20262;-49
2023/02/20 01:40:26;;;;;;;0.65;0.65;;;;;;;;;;5044083;28;20531;-49
2023/02/20 01:42:52;;;;;;;0.60;0.60;;;;;;;;;;5049683;28;20179;-49
2023/02/20 01:45:21;;;;;;;0.60;0.60;;;;;;;;;;5059938;28;20211;-49
2023/02/20 01:47:47;;;;;;;0.60;0.60;;;;;;;;;;5051639;28;20278;-49
2023/02/20 01:50:17;;;;;;;0.68;0.65;;;;;;;;;;5053055;28;20218;-49
2023/02/20 01:52:43;;;;;;;0.60;0.60;;;;;;;;;;5059277;28;20210;-49
2023/02/20 01:55:24;;;;;;;0.60;0.60;;;;;;;;;;5055179;28;20547;-49
2023/02/20 01:57:52;;;;;;;0.60;0.60;;;;;;;;;;5046012;28;20280;-49
2023/02/20 02:00:20;;;;;;;0.80;0.80;;;;;;;;;;5060265;28;20194;-49
2023/02/20 02:02:48;;;;;;;0.60;0.60;;;;;;;;;;5064082;28;20186;-49
2023/02/20 02:05:15;;;;;;;0.82;0.77;;;;;;;;;;5046819;28;20220;-49
2023/02/20 02:07:41;;;;;;;0.52;0.52;;;;;;;;;;5057283;28;20447;-49
2023/02/20 02:10:09;;;;;;;0.35;0.35;;;;;;;;;;5057445;28;20253;-49
2023/02/20 02:12:35;;;;;;;0.68;0.65;;;;;;;;;;5051109;28;20455;-49
2023/02/20 02:15:01;;;;;;;0.70;0.70;;;;;;;;;;5061575;28;20206;-49
2023/02/20 02:17:44;;;;;;;0.60;0.60;;;;;;;;;;5059419;28;20217;-49
2023/02/20 02:20:19;;;;;;;0.90;0.43;;;;;;;;;;5059856;28;20273;-49
2023/02/20 02:23:04;;;;;;;0.70;0.70;;;;;;;;;;5052179;28;20217;-49
2023/02/20 02:25:32;;;;;;;0.60;0.60;;;;;;;;;;5055828;28;20241;-49
2023/02/20 02:28:01;;;;;;;0.57;0.50;;;;;;;;;;5055391;28;20623;-49
2023/02/20 02:30:27;;;;;;;0.60;0.60;;;;;;;;;;5066221;28;20500;-49
2023/02/20 02:32:56;;;;;;;0.50;0.50;;;;;;;;;;5060463;28;20228;-49
2023/02/20 02:35:37;;;;;;;0.60;0.60;;;;;;;;;;5064740;28;20464;-49
2023/02/20 02:38:26;;;;;;;0.43;0.43;;;;;;;;;;5061758;28;20217;-49
2023/02/20 02:41:11;;;;;;;0.70;0.70;;;;;;;;;;5051975;28;20193;-49
2023/02/20 02:43:37;;;;;;;0.50;0.50;;;;;;;;;;5055799;28;20264;-49
2023/02/20 02:46:08;;;;;;;0.60;0.60;;;;;;;;;;5061492;28;21976;-49
2023/02/20 02:49:13;;;;;;;0.73;0.73;;;;;;;;;;5052172;28;20191;-49
2023/02/20 02:51:44;;;;;;;0.70;0.70;;;;;;;;;;5044231;28;20230;-49
2023/02/20 02:54:19;;;;;;;0.70;0.70;;;;;;;;;;5055570;28;20195;-49
2023/02/20 02:56:46;;;;;;;0.68;0.68;;;;;;;;;;5050509;28;20193;-49
2023/02/20 02:59:18;;;;;;;0.60;0.60;;;;;;;;;;5051049;28;20202;-49
2023/02/20 03:01:47;;;;;;;0.60;0.60;;;;;;;;;;5050132;28;20529;-49
2023/02/20 03:04:13;;;;;;;0.73;0.73;;;;;;;;;;5054858;28;20563;-49
2023/02/20 03:06:42;;;;;;;0.60;0.60;;;;;;;;;;5055608;28;20191;-49
2023/02/20 03:09:10;;;;;;;0.63;0.63;;;;;;;;;;5052081;28;20630;-49
2023/02/20 03:11:37;;;;;;;0.52;0.52;;;;;;;;;;5050025;28;20254;-50
2023/02/20 03:16:56;;;;;;;0.55;0.50;;;;;;;;;;5059973;28;20636;-49
2023/02/20 03:19:25;;;;;;;0.70;0.70;;;;;;;;;;5070142;28;20572;-49
2023/02/20 03:21:53;;;;;;;0.60;0.60;;;;;;;;;;5064808;28;20175;-49
2023/02/20 03:24:19;;;;;;;0.75;0.75;;;;;;;;;;5065676;28;20272;-49
2023/02/20 03:26:46;;;;;;;0.95;0.70;;;;;;;;;;5051851;28;20526;-49
2023/02/20 03:29:23;;;;;;;1.15;0.68;;;;;;;;;;5058175;28;20194;-49
2023/02/20 03:45:45;;;;;;;0.60;0.60;;;;;;;;;;5056016;28;20248;-49
2023/02/20 03:48:32;;;;;;;0.95;0.70;;;;;;;;;;5046746;28;20219;-49
2023/02/20 03:51:10;;;;;;;1.10;0.77;;;;;;;;;;5041985;28;20257;-50
2023/02/20 03:53:36;;;;;;;0.93;0.93;;;;;;;;;;5062287;28;20192;-49
2023/02/20 03:56:05;;;;;;;0.77;0.70;;;;;;;;;;5046096;28;20191;-49
2023/02/20 03:58:34;;;;;;;0.65;0.65;;;;;;;;;;5062632;28;20263;-50
2023/02/20 04:01:01;;;;;;;0.75;0.75;;;;;;;;;;5055800;28;20186;-50
2023/02/20 04:03:29;;;;;;;0.70;0.70;;;;;;;;;;5064264;28;20190;-49
2023/02/20 04:05:55;;;;;;;0.80;0.80;;;;;;;;;;5055335;28;20193;-49
2023/02/20 04:08:34;;;;;;;0.65;0.65;;;;;;;;;;5052160;28;20237;-49
2023/02/20 04:11:03;;;;;;;0.80;0.70;;;;;;;;;;5063927;28;20203;-49
2023/02/20 04:13:29;;;;;;;0.60;0.60;;;;;;;;;;5064547;28;20187;-49
2023/02/20 04:15:58;;;;;;;0.63;0.63;;;;;;;;;;5053817;28;20508;-49
2023/02/20 04:18:24;;;;;;;0.80;0.80;;;;;;;;;;5064661;28;20461;-49
2023/02/20 04:20:52;;;;;;;0.60;0.60;;;;;;;;;;5054621;28;20187;-50
2023/02/20 04:23:20;;;;;;;1.48;0.82;;;;;;;;;;5067432;28;20454;-50
2023/02/20 04:25:49;;;;;;;0.80;0.77;;;;;;;;;;5052857;28;20182;-50
2023/02/20 04:28:15;;;;;;;0.70;0.70;;;;;;;;;;5060670;28;20200;-50
2023/02/20 04:30:41;;;;;;;0.60;0.60;;;;;;;;;;5050122;28;20206;-50
2023/02/20 04:33:10;;;;;;;0.77;0.77;;;;;;;;;;5063113;28;20182;-50
2023/02/20 04:35:36;;;;;;;0.85;0.85;;;;;;;;;;5069954;28;20515;-50
2023/02/20 04:38:02;;;;;;;1.27;0.73;;;;;;;;;;5058337;28;20258;-50
2023/02/20 04:40:28;;;;;;;0.70;0.70;;;;;;;;;;5053071;28;20257;-49
2023/02/20 04:42:53;;;;;;;1.80;0.70;;;;;;;;;;5057024;28;20804;-50
2023/02/20 04:45:19;;;;;;;1.05;0.70;;;;;;;;;;5063843;28;20214;-50
2023/02/20 04:47:46;;;;;;;2.75;1.00;;;;;;;;;;5058434;28;20450;-50
2023/02/20 04:50:23;;;;;;;1.15;0.85;;;;;;;;;;5058483;28;20207;-50
2023/02/20 04:52:48;;;;;;;2.25;1.10;;;;;;;;;;5054114;28;20182;-49
2023/02/20 04:55:14;;;;;;;1.65;0.93;;;;;;;;;;5053356;28;20202;-49
2023/02/20 04:57:40;;;;;;;1.45;0.93;;;;;;;;;;5054014;28;20267;-49
2023/02/20 05:00:07;;;;;;;1.75;1.13;;;;;;;;;;5052373;28;20274;-50
2023/02/20 05:02:33;;;;;;;1.20;1.10;;;;;;;;;;5045422;28;20194;-49
2023/02/20 05:04:59;;;;;;;1.30;1.20;;;;;;;;;;5055699;28;20183;-50
2023/02/20 05:07:25;;;;;;;1.40;1.30;;;;;;;;;;5062789;28;20268;-49
2023/02/20 05:09:51;;;;;;;2.47;1.00;;;;;;;;;;5045879;28;20268;-49
2023/02/20 05:12:17;;;;;;;2.47;1.13;;;;;;;;;;5061814;28;20244;-49
2023/02/20 05:14:43;;;;;;;2.13;1.10;;;;;;;;;;5060963;28;20228;-49
2023/02/20 05:17:09;;;;;;;1.50;1.08;;;;;;;;;;5048381;28;20187;-49
2023/02/20 05:19:35;;;;;;;2.70;1.17;;;;;;;;;;5055333;28;20187;-50
2023/02/20 05:22:19;;;;;;;2.03;1.30;;;;;;;;;;5052627;28;20511;-50
2023/02/20 05:24:46;;;;;;;3.95;1.30;;;;;;;;;;5063626;28;20187;-50
2023/02/20 05:27:13;;;;;;;5.38;1.30;;;;;;;;;;5060943;28;20545;-49
2023/02/20 05:29:43;;;;;;;2.70;1.50;;;;;;;;;;5054167;28;20188;-50
2023/02/20 05:32:09;;;;;;;2.20;1.33;;;;;;;;;;5048593;28;20190;-50
2023/02/20 05:34:36;;;;;;;5.13;1.60;;;;;;;;;;5060962;28;20473;-50
2023/02/20 05:37:02;;;;;;;2.03;1.30;;;;;;;;;;5058764;28;20175;-50
2023/02/20 05:39:28;;;;;;;2.33;1.40;;;;;;;;;;5049954;28;20203;-50
2023/02/20 05:41:54;;;;;;;4.00;1.40;;;;;;;;;;5062692;28;20247;-50
2023/02/20 05:44:19;;;;;;;2.42;1.20;;;;;;;;;;5058786;28;20226;-50
2023/02/20 05:46:45;;;;;;;1.63;1.10;;;;;;;;;;5063572;28;20182;-50
2023/02/20 05:49:11;;;;;;;3.30;1.25;;;;;;;;;;5057832;28;20186;-50
2023/02/20 05:51:38;;;;;;;2.80;1.45;;;;;;;;;;5042359;28;20215;-50
2023/02/20 05:54:04;;;;;;;3.60;1.40;;;;;;;;;;5056795;28;20178;-50
2023/02/20 05:56:31;;;;;;;4.80;1.63;;;;;;;;;;5047477;28;20196;-50
2023/02/20 05:58:58;;;;;;;8.65;1.85;;;;;;;;;;5056858;28;20167;-50
2023/02/20 06:01:28;;;;;;;3.33;1.60;;;;;;;;;;5067415;28;20534;-50
2023/02/20 06:03:54;;;;;;;2.67;1.63;;;;;;;;;;5044541;28;20183;-50
2023/02/20 06:06:20;;;;;;;3.38;1.50;;;;;;;;;;5045577;28;20191;-50
2023/02/20 06:08:47;;;;;;;3.40;1.33;;;;;;;;;;5059689;28;20202;-50
2023/02/20 06:11:13;;;;;;;2.78;1.80;;;;;;;;;;5059557;28;20645;-50
2023/02/20 06:13:40;;;;;;;3.30;1.58;;;;;;;;;;5059503;28;20190;-50
2023/02/20 06:16:06;;;;;;;2.58;1.73;;;;;;;;;;5056377;28;20171;-50
2023/02/20 06:18:32;;;;;;;3.42;1.48;;;;;;;;;;5048372;28;20184;-51
2023/02/20 06:20:58;;;;;;;6.15;1.73;;;;;;;;;;5065981;28;20197;-50
2023/02/20 06:23:24;;;;;;;1.77;1.48;;;;;;;;;;5066684;28;20187;-50
2023/02/20 06:25:50;;;;;;;4.90;1.70;;;;;;;;;;5068432;28;20193;-51
2023/02/20 06:28:16;;;;;;;1.73;1.30;;;;;;;;;;5057692;28;20549;-50
2023/02/20 06:30:42;;;;;;;2.03;1.70;;;;;;;;;;5065309;28;20218;-50
2023/02/20 06:33:08;;;;;;;3.25;1.63;;;;;;;;;;5069594;28;20177;-50
2023/02/20 06:35:33;;;;;;;3.33;1.60;;;;;;;;;;5067229;28;20236;-50
2023/02/20 06:38:00;;;;;;;2.67;1.50;;;;;;;;;;5058365;28;20213;-51
2023/02/20 06:40:26;;;;;;;2.95;1.60;;;;;;;;;;5067514;28;20182;-51
2023/02/20 06:42:52;;;;;;;1.40;1.30;;;;;;;;;;5066888;28;20190;-51
2023/02/20 06:45:18;;;;;;;3.00;1.58;;;;;;;;;;5052109;28;20294;-51
2023/02/20 06:47:43;;;;;;;1.75;1.63;;;;;;;;;;5061396;28;20186;-50
2023/02/20 06:50:09;;;;;;;2.00;1.52;;;;;;;;;;5050753;28;20256;-50
2023/02/20 06:52:35;;;;;;;2.92;1.70;;;;;;;;;;5059143;28;20205;-51
2023/02/20 06:55:01;;;;;;;2.08;1.42;;;;;;;;;;5057391;28;20170;-51
2023/02/20 06:57:27;;;;;;;1.67;1.35;;;;;;;;;;5061211;28;20262;-51
2023/02/20 06:59:53;;;;;;;2.33;1.77;;;;;;;;;;5068532;28;20178;-50
2023/02/20 07:02:19;;;;;;;2.10;1.60;;;;;;;;;;5062351;28;20239;-50
2023/02/20 07:04:48;;;;;;;2.65;1.50;;;;;;;;;;5063886;28;20178;-50
2023/02/20 07:07:14;;;;;;;1.85;1.25;;;;;;;;;;5070267;28;20551;-51
2023/02/20 07:09:40;;;;;;;2.95;1.65;;;;;;;;;;5053508;28;20190;-51
2023/02/20 07:12:06;;;;;;;1.48;1.35;;;;;;;;;;5061818;28;20642;-51
2023/02/20 07:14:32;;;;;;;3.20;1.67;;;;;;;;;;5052293;28;20211;-51
2023/02/20 07:16:58;;;;;;;3.03;1.48;;;;;;;;;;5060555;28;20201;-51
2023/02/20 07:19:24;;;;;;;2.55;1.40;;;;;;;;;;5049208;28;20192;-51
2023/02/20 07:21:50;;;;;;;2.03;1.50;;;;;;;;;;5059398;28;20194;-51
2023/02/20 07:24:16;;;;;;;1.63;1.33;;;;;;;;;;5062214;28;20539;-50
2023/02/20 07:26:42;;;;;;;2.67;1.65;;;;;;;;;;5064588;28;20182;-51
2023/02/20 07:29:08;;;;;;;2.08;1.48;;;;;;;;;;5051339;28;20245;-50
2023/02/20 07:31:34;;;;;;;1.30;1.20;;;;;;;;;;5065528;28;20230;-51
2023/02/20 07:34:00;;;;;;;3.58;1.48;;;;;;;;;;5058514;28;20499;-51
2023/02/20 07:36:26;;;;;;;1.23;1.13;;;;;;;;;;5050538;28;20194;-51
2023/02/20 07:38:56;;;;;;;2.50;1.33;;;;;;;;;;5067494;28;20532;-51
2023/02/20 07:41:22;;;;;;;1.55;1.45;;;;;;;;;;5048252;28;20209;-51
2023/02/20 07:43:48;;;;;;;1.50;1.40;;;;;;;;;;5065816;28;20188;-51
2023/02/20 07:46:14;;;;;;;1.65;1.45;;;;;;;;;;5072390;28;20197;-50
2023/02/20 07:48:40;;;;;;;1.77;1.30;;;;;;;;;;5050661;28;20198;-51
2023/02/20 07:51:06;;;;;;;1.30;1.20;;;;;;;;;;5061628;28;20238;-50
2023/02/20 07:53:32;;;;;;;1.83;1.40;;;;;;;;;;5067070;28;20178;-51
2023/02/20 07:55:58;;;;;;;2.30;1.40;;;;;;;;;;5053928;28;20172;-51
2023/02/20 07:58:24;;;;;;;1.30;1.20;;;;;;;;;;5059942;28;20182;-51
2023/02/20 08:00:50;;;;;;;1.35;1.23;;;;;;;;;;5057957;28;20474;-51
2023/02/20 08:03:16;;;;;;;1.50;1.40;;;;;;;;;;5062544;28;20167;-51
2023/02/20 08:05:43;;;;;;;2.08;1.20;;;;;;;;;;5053701;28;20206;-51
2023/02/20 08:08:09;;;;;;;1.20;1.10;;;;;;;;;;5059215;28;20433;-50
2023/02/20 08:10:35;;;;;;;1.30;1.20;;;;;;;;;;5051231;28;20257;-51
2023/02/20 08:13:01;;;;;;;1.45;1.30;;;;;;;;;;5062945;28;20175;-51
2023/02/20 08:15:27;;;;;;;1.60;1.50;;;;;;;;;;5050676;28;20228;-51
2023/02/20 08:17:53;;;;;;;1.30;1.20;;;;;;;;;;5059889;28;21064;-51
2023/02/20 08:20:20;;;;;;;1.88;1.20;;;;;;;;;;5061978;28;20623;-51
2023/02/20 08:22:47;;;;;;;1.00;1.00;;;;;;;;;;5064781;28;20461;-51
2023/02/20 08:25:13;;;;;;;1.20;1.10;;;;;;;;;;5069711;28;20288;-51
2023/02/20 08:27:43;;;;;;;1.63;1.42;;;;;;;;;;5053760;28;20197;-51
2023/02/20 08:30:11;;;;;;;1.30;1.20;;;;;;;;;;5056442;28;20207;-51
2023/02/20 08:32:37;;;;;;;1.33;1.10;;;;;;;;;;5047899;28;20184;-51
2023/02/20 08:35:03;;;;;;;1.33;1.23;;;;;;;;;;5061332;28;20183;-50
2023/02/20 08:37:29;;;;;;;1.33;1.15;;;;;;;;;;5043575;28;20186;-51
2023/02/20 08:39:55;;;;;;;1.20;1.10;;;;;;;;;;5062082;28;20186;-50
2023/02/20 08:42:21;;;;;;;1.60;0.90;;;;;;;;;;5066220;28;20268;-50
2023/02/20 08:44:47;;;;;;;1.50;1.25;;;;;;;;;;5063358;28;20182;-51
2023/02/20 08:47:13;;;;;;;1.88;1.40;;;;;;;;;;5040230;28;20489;-51
2023/02/20 08:49:39;;;;;;;1.60;1.05;;;;;;;;;;5063482;28;20210;-50
2023/02/20 08:52:05;;;;;;;0.98;0.98;;;;;;;;;;5054333;28;20297;-51
2023/02/20 08:54:31;;;;;;;1.20;1.10;;;;;;;;;;5051774;28;20191;-50
2023/02/20 08:56:57;;;;;;;1.52;1.27;;;;;;;;;;5050056;28;20193;-51
2023/02/20 08:59:23;;;;;;;1.20;1.00;;;;;;;;;;5064461;28;20182;-51
2023/02/20 09:01:49;;;;;;;1.88;1.08;;;;;;;;;;5050359;28;20178;-51
2023/02/20 09:04:15;;;;;;;2.03;1.23;;;;;;;;;;5057336;28;20214;-50
2023/02/20 09:06:41;;;;;;;1.10;1.00;;;;;;;;;;5067701;28;20244;-51
2023/02/20 09:09:07;;;;;;;1.10;1.00;;;;;;;;;;5050890;28;20479;-51
2023/02/20 09:11:34;;;;;;;1.67;1.05;;;;;;;;;;5064146;28;20283;-51
2023/02/20 09:14:00;;;;;;;1.30;1.20;;;;;;;;;;5042785;28;20210;-51
2023/02/20 09:16:27;;;;;;;1.13;1.02;;;;;;;;;;5043330;28;20215;-51
2023/02/20 09:18:54;;;;;;;1.08;1.00;;;;;;;;;;5050353;28;20267;-51
2023/02/20 09:21:20;;;;;;;1.75;0.98;;;;;;;;;;5051422;28;20645;-50
2023/02/20 09:23:47;;;;;;;1.10;1.00;;;;;;;;;;5044898;28;20682;-51
2023/02/20 09:26:13;;;;;;;1.10;1.00;;;;;;;;;;5055041;28;20250;-51
2023/02/20 09:28:39;;;;;;;1.80;1.10;;;;;;;;;;5046159;28;20246;-50
2023/02/20 09:31:05;;;;;;;1.02;0.98;;;;;;;;;;5048081;28;20552;-51
2023/02/20 09:33:31;;;;;;;1.27;1.10;;;;;;;;;;5054070;28;20594;-51
2023/02/20 09:35:57;;;;;;;1.10;1.00;;;;;;;;;;5054119;28;20673;-51
2023/02/20 09:38:26;;;;;;;1.17;1.05;;;;;;;;;;5043569;28;20203;-50
2023/02/20 09:40:54;;;;;;;1.25;0.98;;;;;;;;;;5053947;28;20179;-51
2023/02/20 09:43:19;;;;;;;1.27;1.02;;;;;;;;;;5053905;28;20190;-51
2023/02/20 09:45:55;;;;;;;1.00;1.00;;;;;;;;;;5050885;28;20179;-50
2023/02/20 09:48:40;;;;;;;1.13;1.02;;;;;;;;;;5053876;28;20281;-50
2023/02/20 09:51:10;;;;;;;1.27;1.17;;;;;;;;;;5053228;28;20226;-51
2023/02/20 09:53:36;;;;;;;1.20;1.10;;;;;;;;;;5041969;28;20184;-51
2023/02/20 09:56:03;;;;;;;1.40;1.15;;;;;;;;;;5052885;28;20208;-51
2023/02/20 09:58:40;;;;;;;1.27;1.10;;;;;;;;;;5055039;28;20229;-51
2023/02/20 10:01:06;;;;;;;1.30;1.20;;;;;;;;;;5054932;28;20182;-51
2023/02/20 10:03:53;;;;;;;1.20;1.10;;;;;;;;;;5055692;28;20265;-51
2023/02/20 10:06:21;;;;;;;1.10;1.00;;;;;;;;;;5051007;28;20286;-51
2023/02/20 10:08:48;;;;;;;0.98;0.90;;;;;;;;;;5064545;28;20617;-51
2023/02/20 10:11:18;;;;;;;1.13;1.02;;;;;;;;;;5050714;28;20445;-51
2023/02/20 10:13:56;;;;;;;1.00;0.93;;;;;;;;;;5052450;28;20176;-51
2023/02/20 10:16:28;;;;;;;1.45;0.93;;;;;;;;;;5050625;28;20186;-51
2023/02/20 10:18:56;;;;;;;0.98;0.98;;;;;;;;;;5074739;28;20201;-51
2023/02/20 10:21:34;;;;;;;0.82;0.82;;;;;;;;;;5059649;28;20827;-51
2023/02/20 10:24:21;;;;;;;1.20;0.90;;;;;;;;;;5058668;28;20574;-51
2023/02/20 10:26:49;;;;;;;0.90;0.90;;;;;;;;;;5061983;28;20572;-51
2023/02/20 10:29:21;;;;;;;0.90;0.90;;;;;;;;;;5050075;28;20206;-51
2023/02/20 10:31:51;;;;;;;0.90;0.90;;;;;;;;;;5063830;28;20214;-51
2023/02/20 10:34:23;;;;;;;1.33;1.02;;;;;;;;;;5062288;28;20177;-51
2023/02/20 10:36:54;;;;;;;1.00;1.00;;;;;;;;;;5069247;28;20262;-50
2023/02/20 10:39:21;;;;;;;0.80;0.80;;;;;;;;;;5059669;28;20222;-51
2023/02/20 10:42:06;;;;;;;0.88;0.88;;;;;;;;;;5053071;28;20183;-51
2023/02/20 10:44:53;;;;;;;0.90;0.80;;;;;;;;;;5054478;28;20179;-51
2023/02/20 10:47:25;;;;;;;1.45;0.93;;;;;;;;;;5050580;28;20175;-50
2023/02/20 10:49:59;;;;;;;0.88;0.73;;;;;;;;;;5052316;28;20222;-51
2023/02/20 10:52:30;;;;;;;0.80;0.77;;;;;;;;;;5056930;28;20191;-51
2023/02/20 10:55:02;;;;;;;2.05;1.08;;;;;;;;;;5053034;28;20197;-51
2023/02/20 10:57:32;;;;;;;1.00;0.80;;;;;;;;;;5052194;28;20186;-50
2023/02/20 11:00:04;;;;;;;2.20;1.15;;;;;;;;;;5054743;28;20546;-50
2023/02/20 11:02:35;;;;;;;1.88;1.08;;;;;;;;;;5057536;28;20198;-52
2023/02/20 11:05:05;;;;;;;1.33;1.17;;;;;;;;;;5052660;28;20564;-51
2023/02/20 11:07:31;;;;;;;1.08;0.90;;;;;;;;;;5052365;28;20202;-51
2023/02/20 11:09:56;;;;;;;1.33;1.00;;;;;;;;;;5051902;28;20171;-51
2023/02/20 11:12:29;;;;;;;1.92;1.35;;;;;;;;;;5057238;28;20179;-51
2023/02/20 11:14:55;;;;;;;1.33;1.23;;;;;;;;;;5051376;28;20209;-51
2023/02/20 11:17:27;;;;;;;1.65;1.20;;;;;;;;;;5055875;28;20282;-51
2023/02/20 11:19:57;;;;;;;1.50;1.40;;;;;;;;;;5046744;28;20180;-51
2023/02/20 11:22:41;;;;;;;1.77;1.48;;;;;;;;;;5054096;28;20237;-51
2023/02/20 11:25:26;;;;;;;2.60;1.70;;;;;;;;;;5056456;28;20547;-50
2023/02/20 11:27:55;;;;;;;2.22;1.50;;;;;;;;;;5056682;28;20245;-51
2023/02/20 11:30:23;;;;;;;2.00;1.70;;;;;;;;;;5053192;28;20210;-50
2023/02/20 11:32:50;;;;;;;2.20;1.70;;;;;;;;;;5054501;28;20183;-51
2023/02/20 11:35:22;;;;;;;1.90;1.65;;;;;;;;;;5053141;28;20466;-51
2023/02/20 11:37:49;;;;;;;1.60;1.50;;;;;;;;;;5052857;28;20203;-50
2023/02/20 11:40:17;;;;;;;1.58;1.42;;;;;;;;;;5056374;28;20457;-51
2023/02/20 11:42:44;;;;;;;1.40;1.30;;;;;;;;;;5056569;28;20175;-51
2023/02/20 11:45:13;;;;;;;2.05;1.65;;;;;;;;;;5051423;28;20171;-51
2023/02/20 11:47:39;;;;;;;2.03;1.45;;;;;;;;;;5053065;28;20175;-51
2023/02/20 11:50:14;;;;;;;2.08;1.50;;;;;;;;;;5051317;28;20183;-50
2023/02/20 11:52:54;;;;;;;2.03;1.80;;;;;;;;;;5053257;28;20174;-51
2023/02/20 11:55:23;;;;;;;2.10;1.52;;;;;;;;;;5045833;28;20180;-51
2023/02/20 11:57:50;;;;;;;2.75;1.75;;;;;;;;;;5060476;28;20183;-50
2023/02/20 12:00:19;;;;;;;1.40;1.30;;;;;;;;;;5051248;28;20186;-51
2023/02/20 12:03:04;;;;;;;1.60;1.35;;;;;;;;;;5052702;28;20210;-51
2023/02/20 12:05:38;;;;;;;1.52;1.40;;;;;;;;;;5051172;28;20167;-51
2023/02/20 12:08:19;;;;;;;2.28;1.40;;;;;;;;;;5049614;28;20537;-51
2023/02/20 12:10:46;;;;;;;1.65;1.52;;;;;;;;;;5048904;28;20256;-50
2023/02/20 12:13:14;;;;;;;1.52;1.33;;;;;;;;;;5050644;28;20273;-51
2023/02/20 12:15:39;;;;;;;1.63;1.30;;;;;;;;;;5056177;28;20254;-51
2023/02/20 12:18:11;;;;;;;2.75;1.58;;;;;;;;;;5052852;28;20289;-51
2023/02/20 12:20:43;;;;;;;2.30;1.60;;;;;;;;;;5050573;28;20248;-50
2023/02/20 12:23:27;;;;;;;1.80;1.50;;;;;;;;;;5054114;28;20179;-51
2023/02/20 12:26:11;;;;;;;1.92;1.50;;;;;;;;;;5048452;28;20615;-51
2023/02/20 12:28:49;;;;;;;2.38;1.48;;;;;;;;;;5064614;28;20656;-51
2023/02/20 12:31:28;;;;;;;1.75;1.40;;;;;;;;;;5061494;28;20225;-51
2023/02/20 12:34:00;;;;;;;1.25;1.15;;;;;;;;;;5047288;28;20566;-51
2023/02/20 12:36:29;;;;;;;1.40;1.30;;;;;;;;;;5050234;28;20184;-51
2023/02/20 12:39:04;;;;;;;1.77;1.40;;;;;;;;;;5055099;28;20176;-51
2023/02/20 12:41:53;;;;;;;1.70;1.25;;;;;;;;;;5050522;28;20194;-50
2023/02/20 12:44:37;;;;;;;2.65;1.50;;;;;;;;;;5045399;28;20171;-51
2023/02/20 12:47:10;;;;;;;2.05;1.50;;;;;;;;;;5060752;28;20210;-51
2023/02/20 12:49:54;;;;;;;1.42;1.23;;;;;;;;;;5052078;28;20270;-50
2023/02/20 12:52:39;;;;;;;2.42;1.27;;;;;;;;;;5061261;28;20217;-51
2023/02/20 12:55:11;;;;;;;1.50;1.13;;;;;;;;;;5054475;28;20186;-51
2023/02/20 12:57:53;;;;;;;1.73;1.17;;;;;;;;;;5056727;28;20186;-51
2023/02/20 13:00:25;;;;;;;1.25;1.15;;;;;;;;;;5047678;28;20184;-51
2023/02/20 13:02:55;;;;;;;1.20;1.00;;;;;;;;;;5056162;28;20209;-51
2023/02/20 13:05:23;;;;;;;1.80;1.38;;;;;;;;;;5045721;28;20183;-51
2023/02/20 13:07:53;;;;;;;1.25;1.15;;;;;;;;;;5048114;28;20270;-50
2023/02/20 13:10:31;;;;;;;1.83;1.13;;;;;;;;;;5058692;28;20485;-51
2023/02/20 13:12:58;;;;;;;2.65;1.10;;;;;;;;;;5065145;28;20211;-51
2023/02/20 13:15:35;;;;;;;1.85;1.30;;;;;;;;;;5061900;28;20522;-51
2023/02/20 13:18:09;;;;;;;1.75;1.20;;;;;;;;;;5060768;28;20252;-51
2023/02/20 13:20:40;;;;;;;1.65;1.15;;;;;;;;;;5053266;28;20222;-50
2023/02/20 13:23:15;;;;;;;1.33;1.20;;;;;;;;;;5064842;28;20481;-51
2023/02/20 13:25:45;;;;;;;1.38;1.17;;;;;;;;;;5055279;28;20217;-51
2023/02/20 13:28:11;;;;;;;1.52;1.02;;;;;;;;;;5052569;28;20278;-51
2023/02/20 13:30:38;;;;;;;1.83;0.88;;;;;;;;;;5048754;28;20283;-50
2023/02/20 13:33:22;;;;;;;2.00;1.10;;;;;;;;;;5060331;28;20185;-51
2023/02/20 13:35:52;;;;;;;1.15;1.00;;;;;;;;;;5056430;28;20206;-51
2023/02/20 13:38:20;;;;;;;1.80;1.10;;;;;;;;;;5065068;28;20225;-51
2023/02/20 13:40:55;;;;;;;0.88;0.88;;;;;;;;;;5050864;28;20188;-51
2023/02/20 13:43:21;;;;;;;1.35;1.20;;;;;;;;;;5064948;28;20208;-51
2023/02/20 13:45:48;;;;;;;1.55;1.20;;;;;;;;;;5051576;28;20555;-51
2023/02/20 13:48:29;;;;;;;1.13;1.00;;;;;;;;;;5064486;28;20193;-51
2023/02/20 13:51:14;;;;;;;1.63;1.00;;;;;;;;;;5051635;28;20209;-51
2023/02/20 13:53:41;;;;;;;0.88;0.88;;;;;;;;;;5055829;28;20178;-51
2023/02/20 13:56:16;;;;;;;1.13;0.82;;;;;;;;;;5056130;28;20260;-51
2023/02/20 13:58:43;;;;;;;1.98;1.25;;;;;;;;;;5067662;28;20228;-51
2023/02/20 14:01:09;;;;;;;1.33;0.90;;;;;;;;;;5061988;28;20332;-51
2023/02/20 14:03:35;;;;;;;1.30;0.90;;;;;;;;;;5047640;28;20253;-51
2023/02/20 14:06:02;;;;;;;1.05;0.98;;;;;;;;;;5055493;28;20180;-51
2023/02/20 14:08:29;;;;;;;1.10;1.00;;;;;;;;;;5040103;28;20191;-51
2023/02/20 14:10:55;;;;;;;1.05;0.90;;;;;;;;;;5043610;28;20210;-51
2023/02/20 14:13:22;;;;;;;1.10;0.90;;;;;;;;;;5048093;28;20186;-51
2023/02/20 14:15:53;;;;;;;1.00;0.90;;;;;;;;;;5051061;28;20270;-51
2023/02/20 14:18:21;;;;;;;0.98;0.98;;;;;;;;;;5067118;28;20179;-51
2023/02/20 14:20:48;;;;;;;0.70;0.70;;;;;;;;;;5054670;28;20463;-50
2023/02/20 14:23:18;;;;;;;1.10;0.90;;;;;;;;;;5065617;28;20249;-51
2023/02/20 14:25:52;;;;;;;1.38;1.10;;;;;;;;;;5068616;28;20183;-51
2023/02/20 14:28:18;;;;;;;1.17;1.00;;;;;;;;;;5046861;28;20219;-50
2023/02/20 14:30:44;;;;;;;0.82;0.82;;;;;;;;;;5042159;28;20269;-50
2023/02/20 14:33:19;;;;;;;1.20;0.82;;;;;;;;;;5059484;28;20434;-50
2023/02/20 14:36:03;;;;;;;1.40;0.90;;;;;;;;;;5059583;28;20174;-51
2023/02/20 14:38:35;;;;;;;0.93;0.80;;;;;;;;;;5050853;28;20575;-52
2023/02/20 14:41:09;;;;;;;1.27;1.08;;;;;;;;;;5053944;28;20188;-51
2023/02/20 14:43:35;;;;;;;1.77;1.17;;;;;;;;;;5061364;28;20182;-51
2023/02/20 14:46:05;;;;;;;1.25;0.90;;;;;;;;;;5051732;28;20319;-50
2023/02/20 14:48:33;;;;;;;0.80;0.80;;;;;;;;;;5058086;28;20195;-50
2023/02/20 14:51:12;;;;;;;1.35;0.90;;;;;;;;;;5064474;28;20203;-50
2023/02/20 14:53:38;;;;;;;0.93;0.90;;;;;;;;;;5061799;28;20174;-51
2023/02/20 14:56:30;;;;;;;1.02;0.93;;;;;;;;;;5051725;28;20461;-50
2023/02/20 14:58:56;;;;;;;1.33;0.90;;;;;;;;;;5042379;28;20192;-51
2023/02/20 15:01:37;;;;;;;0.82;0.60;;;;;;;;;;5046196;28;20771;-51
2023/02/20 15:04:14;;;;;;;1.92;0.90;;;;;;;;;;5047824;28;20815;-51
2023/02/20 15:06:42;;;;;;;0.95;0.80;;;;;;;;;;5052311;28;20187;-51
2023/02/20 15:09:08;;;;;;;1.63;0.90;;;;;;;;;;5048479;28;20266;-51
2023/02/20 15:11:35;;;;;;;1.42;0.75;;;;;;;;;;5044811;28;20211;-50